Flight Track Log - Related Links

Times and Time Zones

All times are in EDT time to prevent confusion due to time zone crossing. See the LBQ792 flight status page for this flight to view local times or setup timezone preferences in your user account.

Time Position Orientation Groundspeed Altitude Reporting Facility
EDT Latitude Longitude Course Direction KTS MPH feet Rate Location/Type
Sat 02:17:47 AM 39.2333 -76.5833 38° Northeast 146 168 4,500  Level Potomac TRACON
Sat 02:18:47 AM 39.2667 -76.5500 38° Northeast 154 177 6,200 1,250 Climbing Potomac TRACON
Sat 02:19:47 AM 39.3000 -76.5167 38° Northeast 186 214 7,000 347 Climbing Potomac TRACON
Sat 02:20:48 AM 39.3500 -76.4667 38° Northeast 221 254 6,900 -50 Descending Potomac TRACON
Sat 02:21:48 AM 39.4000 -76.4167 38° Northeast 226 260 6,900 17 Level Potomac TRACON
Sat 02:22:00 AM 39.4186 -76.3932 39° Northeast  Level FlightAware Approximate
Sat 02:24:00 AM 39.4618 -76.3515 39° Northeast  Level FlightAware Approximate
Sat 02:26:37 AM 39.6333 -76.1667 39° Northeast 230 265 7,000  Level Philadelphia TRACON
Sat 02:27:37 AM 39.6833 -76.1167 38° Northeast 228 262 7,000 -150 Level Philadelphia TRACON
Sat 02:28:37 AM 39.7333 -76.0667 38° Northeast 232 267 6,700 -450 Descending Philadelphia TRACON
Sat 02:29:37 AM 39.7833 -76.0167 38° Northeast 241 277 6,100 -550 Descending Philadelphia TRACON
Sat 02:30:37 AM 39.8333 -75.9667 38° Northeast 240 276 5,600 -500 Descending Philadelphia TRACON
Sat 02:31:00 AM 39.7738 -76.0201 39° Northeast  Level FlightAware Approximate
Sat 02:31:37 AM 39.9000 -75.9167 30° Northeast 241 277 5,100  Level Philadelphia TRACON
Sat 02:32:37 AM 39.9500 -75.8667 37° Northeast 233 268 5,000 -381 Descending Philadelphia TRACON
Sat 02:33:43 AM 40.0167 -75.8167 30° Northeast 232 267 4,300 -636 Descending Philadelphia TRACON
Sat 02:35:00 AM 40.0534 -75.7299 37° Northeast  Level FlightAware Approximate
Sat 02:42:00 AM 40.2333 -75.5500 37° Northeast  Level FlightAware Approximate
Sat 02:43:00 AM 40.2396 -75.5567 37° Northeast  Level Estimated
Sat 02:44:00 AM 40.2396 -75.5567 37° Northeast  Level Estimated
Sat 02:45:00 AM 40.2396 -75.5567 37° Northeast  Level Estimated
Sat 02:46:00 AM 40.2396 -75.5567 37° Northeast  Level Estimated
Sat 02:47:00 AM 40.2396 -75.5567 37° Northeast  Level Estimated
Sat 02:48:00 AM 40.2396 -75.5567 37° Northeast  Level Estimated
Sat 02:49:00 AM 40.2396 -75.5567 37° Northeast  Level Estimated
Sat 02:50:00 AM 40.2396 -75.5567 37° Northeast  Level Estimated
Sat 02:51:00 AM 40.2396 -75.5567 37° Northeast  Level Estimated
Sat 02:52:00 AM 40.2396 -75.5567 37° Northeast  Level Estimated
Sat 02:53:00 AM 40.2396 -75.5567 37° Northeast  Level Estimated

Login

Don't have an account? Register now (free) for customized features, flight alerts, and more!